Time;durP1;ratioP1;P1;durP2;ratioP2;P2;SDS_P1;SDS_P2;PMS_P1;PMS_P2;Temp;Humidity;BMP_temperature;BMP_pressure;BME280_temperature;BME280_humidity;BME280_pressure;Samples;Min_cycle;Max_cycle;Signal;HPM_P1;HPM_P2
2023/02/14 00:00:23;;;;;;;18.67;7.93;;;;;;;6.86;93.46;103256.16;5055609;28;20442;-70
2023/02/14 00:02:50;;;;;;;20.67;8.43;;;;;;;6.79;93.46;103256.19;5055199;28;20950;-68
2023/02/14 00:05:16;;;;;;;22.10;8.20;;;;;;;6.84;93.00;103252.88;5055280;28;20489;-68
2023/02/14 00:07:43;;;;;;;19.10;7.70;;;;;;;6.82;92.87;103255.78;5055525;28;20449;-68
2023/02/14 00:10:10;;;;;;;27.20;9.60;;;;;;;6.81;91.96;103254.09;5055383;28;20446;-68
2023/02/14 00:12:37;;;;;;;19.50;8.00;;;;;;;6.78;91.59;103251.84;5054923;28;21003;-68
2023/02/14 00:15:23;;;;;;;23.20;8.90;;;;;;;6.80;91.70;103257.84;5055079;28;20482;-68
2023/02/14 00:17:51;;;;;;;20.77;8.13;;;;;;;6.74;92.79;103247.09;5055381;28;20463;-68
2023/02/14 00:20:18;;;;;;;15.87;7.17;;;;;;;6.76;92.28;103245.00;5055162;28;20470;-68
2023/02/14 00:22:45;;;;;;;23.43;7.90;;;;;;;6.76;91.44;103255.78;5054714;28;20824;-68
2023/02/14 00:25:12;;;;;;;25.57;8.27;;;;;;;6.71;91.60;103253.72;5054634;28;20478;-69
2023/02/14 00:27:38;;;;;;;21.90;8.23;;;;;;;6.66;91.96;103245.44;5054780;28;20444;-68
2023/02/14 00:30:09;;;;;;;22.20;7.33;;;;;;;6.72;91.76;103243.75;5054640;28;21014;-68
2023/02/14 00:32:37;;;;;;;20.20;7.87;;;;;;;6.72;92.15;103241.06;5054628;28;20488;-68
2023/02/14 00:35:04;;;;;;;24.23;8.63;;;;;;;6.71;92.15;103248.31;5054290;28;21037;-69
2023/02/14 00:37:46;;;;;;;21.77;8.00;;;;;;;6.72;92.15;103241.88;5054854;28;20443;-69
2023/02/14 00:40:13;;;;;;;20.70;7.83;;;;;;;6.72;91.83;103238.38;5054603;28;20426;-69
2023/02/14 00:42:40;;;;;;;29.90;10.43;;;;;;;6.70;91.82;103241.28;5054770;28;20474;-70
2023/02/14 00:45:09;;;;;;;32.93;9.50;;;;;;;6.66;91.62;103242.75;5054550;28;20516;-70
2023/02/14 00:47:35;;;;;;;19.80;7.73;;;;;;;6.66;90.42;103248.13;5054614;28;20446;-70
2023/02/14 00:50:03;;;;;;;22.80;8.83;;;;;;;6.61;90.49;103245.22;5054444;28;20474;-70
2023/02/14 00:52:30;;;;;;;29.20;8.80;;;;;;;6.66;91.52;103245.44;5054177;28;20489;-71
2023/02/14 00:54:56;;;;;;;32.17;8.57;;;;;;;6.70;92.04;103245.84;5054044;28;21022;-70
2023/02/14 00:57:29;;;;;;;22.80;8.13;;;;;;;6.57;92.75;103247.50;5054014;28;20823;-70
2023/02/14 00:59:55;;;;;;;19.13;7.43;;;;;;;6.67;92.46;103246.25;5054391;28;20518;-70
2023/02/14 01:02:23;;;;;;;23.43;8.20;;;;;;;6.66;92.72;103245.44;5053968;28;20955;-70
2023/02/14 01:04:50;;;;;;;21.50;8.40;;;;;;;6.71;92.81;103232.16;5054057;28;20486;-71
2023/02/14 01:07:16;;;;;;;21.60;8.60;;;;;;;6.75;92.96;103235.25;5054197;28;20445;-69
2023/02/14 01:09:43;;;;;;;21.47;7.37;;;;;;;6.70;93.52;103235.91;5054014;28;20475;-70
2023/02/14 01:12:09;;;;;;;22.60;6.90;;;;;;;6.74;93.14;103225.53;5053969;28;20449;-70
2023/02/14 01:14:37;;;;;;;23.53;7.20;;;;;;;6.62;94.00;103228.03;5053912;28;20489;-70
2023/02/14 01:17:03;;;;;;;18.73;7.40;;;;;;;6.62;93.78;103233.41;5053983;28;20695;-71
2023/02/14 01:19:31;;;;;;;22.20;7.93;;;;;;;6.64;93.69;103223.28;5053723;28;20533;-69
2023/02/14 01:21:58;;;;;;;25.43;8.13;;;;;;;6.64;94.03;103219.72;5053472;28;20870;-70
2023/02/14 01:24:25;;;;;;;24.47;8.07;;;;;;;6.66;94.07;103214.97;5053511;28;20486;-70
2023/02/14 01:26:52;;;;;;;25.07;8.37;;;;;;;6.61;93.91;103204.84;5053891;28;20438;-69
2023/02/14 01:29:18;;;;;;;27.07;9.60;;;;;;;6.66;93.46;103205.03;5054062;28;20876;-70
2023/02/14 01:31:47;;;;;;;24.07;8.90;;;;;;;6.67;93.66;103204.00;5053655;28;20449;-70
2023/02/14 01:34:13;;;;;;;20.90;7.83;;;;;;;6.70;93.48;103211.66;5053358;28;20490;-70
2023/02/14 01:36:41;;;;;;;29.33;8.37;;;;;;;6.68;92.27;103212.91;5053599;28;20446;-70
2023/02/14 01:39:12;;;;;;;26.60;8.27;;;;;;;6.60;92.12;103207.72;5053603;28;20454;-69
2023/02/14 01:41:40;;;;;;;17.90;6.93;;;;;;;6.58;91.80;103199.88;5053983;28;20430;-70
2023/02/14 01:44:28;;;;;;;21.90;8.33;;;;;;;6.57;91.72;103208.97;5053724;28;20466;-69
2023/02/14 01:46:57;;;;;;;22.87;6.57;;;;;;;6.52;92.16;103208.78;5053256;28;20519;-70
2023/02/14 01:49:28;;;;;;;19.60;7.03;;;;;;;6.51;92.24;103207.13;5053339;28;20471;-69
2023/02/14 01:51:59;;;;;;;27.13;8.43;;;;;;;6.51;92.21;103210.66;5053588;28;20449;-71
2023/02/14 01:54:29;;;;;;;33.07;8.50;;;;;;;6.48;92.17;103204.84;5053441;28;20927;-70
2023/02/14 01:56:58;;;;;;;17.40;6.97;;;;;;;6.47;91.98;103209.41;5053395;28;20529;-70
2023/02/14 01:59:28;;;;;;;26.13;8.43;;;;;;;6.43;91.97;103202.78;5052609;28;20442;-70
2023/02/14 02:01:56;;;;;;;21.73;7.63;;;;;;;6.49;92.43;103203.81;5053440;28;20534;-69
2023/02/14 02:04:29;;;;;;;20.30;7.20;;;;;;;6.44;93.85;103204.44;5053324;28;20458;-70
2023/02/14 02:07:01;;;;;;;20.97;7.77;;;;;;;6.46;94.18;103212.28;5053001;28;20430;-70
2023/02/14 02:09:33;;;;;;;20.07;7.23;;;;;;;6.47;94.58;103213.97;5053000;28;20530;-70
2023/02/14 02:12:01;;;;;;;23.03;7.63;;;;;;;6.48;94.67;103218.31;5052989;28;20517;-70
2023/02/14 02:14:28;;;;;;;22.60;7.63;;;;;;;6.45;95.26;103210.66;5053112;28;20492;-69
2023/02/14 02:17:19;;;;;;;19.00;6.90;;;;;;;6.51;95.29;103207.97;5052899;28;20947;-68
2023/02/14 02:20:15;;;;;;;20.67;7.03;;;;;;;6.46;96.17;103201.53;5053252;28;20864;-67
2023/02/14 02:23:10;;;;;;;17.30;7.17;;;;;;;6.41;96.85;103202.16;5053219;28;20427;-69
2023/02/14 02:25:59;;;;;;;19.23;6.63;;;;;;;6.50;96.30;103203.59;5052675;28;20502;-69
2023/02/14 02:28:56;;;;;;;22.33;9.03;;;;;;;6.47;95.79;103213.97;5053256;28;20517;-69
2023/02/14 02:31:41;;;;;;;22.50;7.80;;;;;;;6.45;95.34;103211.47;5036382;28;20973;-69
2023/02/14 02:34:43;;;;;;;22.77;7.80;;;;;;;6.41;95.97;103202.16;5052761;28;20470;-69
2023/02/14 02:37:23;;;;;;;19.10;6.47;;;;;;;6.43;96.65;103212.72;5032170;28;20452;-70
2023/02/14 02:40:04;;;;;;;16.30;6.20;;;;;;;6.47;96.88;103208.59;5053022;28;20865;-69
2023/02/14 02:42:40;;;;;;;19.07;6.17;;;;;;;6.47;96.72;103211.28;5052955;28;20490;-69
2023/02/14 02:45:13;;;;;;;23.63;6.80;;;;;;;6.44;96.63;103214.38;5052913;28;20458;-69
2023/02/14 02:47:44;;;;;;;25.17;6.97;;;;;;;6.43;96.13;103216.25;5052640;28;20430;-69
2023/02/14 02:53:19;;;;;;;17.83;6.47;;;;;;;6.31;95.19;103215.22;5052674;28;20906;-70
2023/02/14 02:58:42;;;;;;;18.10;7.40;;;;;;;6.32;95.73;103206.91;5052806;28;20406;-69
2023/02/14 03:01:13;;;;;;;23.87;6.97;;;;;;;6.32;95.60;103198.03;5052753;28;20473;-68
2023/02/14 03:06:29;;;;;;;24.97;7.20;;;;;;;6.26;94.72;103202.38;5052490;28;20401;-69
2023/02/14 03:08:57;;;;;;;18.60;7.63;;;;;;;6.16;94.74;103199.28;5052746;28;20434;-69
2023/02/14 03:11:25;;;;;;;21.17;6.07;;;;;;;6.09;95.83;103203.00;5052905;28;20832;-69
2023/02/14 03:14:06;;;;;;;15.87;6.13;;;;;;;6.11;96.04;103200.91;5056343;28;20442;-69
2023/02/14 03:16:35;;;;;;;20.40;7.10;;;;;;;6.16;96.08;103207.34;5056380;28;20469;-69
2023/02/14 03:22:27;;;;;;;15.77;6.83;;;;;;;6.12;96.07;103207.97;5056268;28;20421;-69
2023/02/14 03:25:03;;;;;;;17.73;7.37;;;;;;;6.12;96.32;103206.09;5055954;28;20527;-70
2023/02/14 03:27:35;;;;;;;15.63;4.90;;;;;;;6.17;96.34;103200.09;5056072;28;20460;-68
2023/02/14 03:30:09;;;;;;;14.90;5.60;;;;;;;6.14;95.88;103200.50;5056228;28;20426;-69
2023/02/14 03:32:41;;;;;;;26.80;7.70;;;;;;;6.15;96.08;103205.66;5055815;28;20517;-69
2023/02/14 03:35:15;;;;;;;17.80;7.37;;;;;;;6.12;96.32;103192.66;5056003;28;20581;-69
2023/02/14 03:37:49;;;;;;;19.67;7.47;;;;;;;6.10;96.46;103197.41;5055834;28;20449;-68
2023/02/14 03:40:23;;;;;;;21.90;7.73;;;;;;;6.14;96.97;103209.41;5055921;28;20510;-69
2023/02/14 03:42:53;;;;;;;19.90;7.43;;;;;;;6.09;98.12;103200.31;5056009;28;20509;-69
2023/02/14 03:45:26;;;;;;;21.37;7.80;;;;;;;6.16;98.02;103201.16;5055891;28;20493;-68
2023/02/14 03:47:55;;;;;;;23.03;8.60;;;;;;;6.13;98.36;103199.69;5055631;28;20841;-69
2023/02/14 03:50:22;;;;;;;21.90;6.67;;;;;;;6.12;98.82;103189.13;5055594;28;20446;-68
2023/02/14 03:52:52;;;;;;;24.87;7.70;;;;;;;6.11;98.92;103196.38;5055469;28;20444;-69
2023/02/14 03:55:26;;;;;;;22.57;8.07;;;;;;;6.18;98.38;103201.75;5055562;28;20486;-69
2023/02/14 03:57:59;;;;;;;20.30;7.40;;;;;;;6.14;98.53;103198.63;5055410;28;20903;-69
2023/02/14 04:00:28;;;;;;;19.30;7.00;;;;;;;6.17;98.37;103200.94;5055312;28;20433;-69
2023/02/14 04:03:01;;;;;;;16.13;7.10;;;;;;;6.10;98.21;103197.41;5055613;28;20881;-69
2023/02/14 04:05:28;;;;;;;16.23;6.30;;;;;;;6.14;98.43;103190.56;5055342;28;20494;-69
2023/02/14 04:07:56;;;;;;;15.23;6.40;;;;;;;6.22;98.19;103184.97;5055273;28;20534;-71
2023/02/14 04:10:25;;;;;;;22.23;6.80;;;;;;;6.21;97.76;103190.59;5055088;28;20529;-70
2023/02/14 04:12:52;;;;;;;13.77;6.50;;;;;;;6.19;97.28;103185.38;5055364;28;20442;-71
2023/02/14 04:15:19;;;;;;;24.10;6.37;;;;;;;6.19;96.68;103179.19;5054897;28;20979;-70
2023/02/14 04:20:30;;;;;;;23.50;7.33;;;;;;;6.15;95.80;103191.41;5055079;28;20500;-70
2023/02/14 04:22:57;;;;;;;18.30;6.53;;;;;;;6.07;96.25;103195.13;5054753;28;20444;-70
2023/02/14 04:25:25;;;;;;;23.33;7.23;;;;;;;6.03;96.75;103188.50;5070437;23;20538;-68
2023/02/14 04:27:52;;;;;;;25.73;7.53;;;;;;;6.06;96.77;103188.06;5034699;28;20505;-68
2023/02/14 04:30:19;;;;;;;16.93;5.70;;;;;;;6.12;96.68;103186.44;5035017;28;20551;-68
2023/02/14 04:32:46;;;;;;;23.47;7.47;;;;;;;6.17;96.56;103184.78;5034641;28;20545;-68
2023/02/14 04:35:12;;;;;;;21.37;6.50;;;;;;;6.17;96.46;103183.97;5034388;28;20491;-68
2023/02/14 04:37:39;;;;;;;20.07;7.80;;;;;;;6.12;96.58;103184.56;5034899;28;20443;-68
2023/02/14 04:40:07;;;;;;;18.03;6.80;;;;;;;6.11;96.70;103172.16;5034472;28;20940;-68
2023/02/14 04:42:35;;;;;;;18.93;7.87;;;;;;;6.10;96.60;103181.25;5034745;28;20443;-68
2023/02/14 04:45:01;;;;;;;22.30;9.10;;;;;;;6.06;96.83;103183.56;5034620;28;20459;-68
2023/02/14 04:47:28;;;;;;;22.63;7.90;;;;;;;6.00;96.98;103184.34;5034687;28;20435;-68
2023/02/14 04:49:55;;;;;;;20.83;7.80;;;;;;;6.01;96.54;103183.31;5034615;28;20439;-66
2023/02/14 04:52:21;;;;;;;15.27;7.00;;;;;;;6.03;96.56;103175.06;5034560;28;20435;-68
2023/02/14 04:54:48;;;;;;;17.40;7.43;;;;;;;6.04;96.42;103182.09;5034381;28;20466;-68
2023/02/14 04:57:15;;;;;;;16.33;6.67;;;;;;;6.01;97.33;103175.25;5034446;28;20446;-68
2023/02/14 04:59:43;;;;;;;23.17;6.33;;;;;;;6.02;97.74;103173.38;5034444;28;20443;-68
2023/02/14 05:02:09;;;;;;;20.73;6.80;;;;;;;6.02;98.01;103178.75;5034393;28;20434;-68
2023/02/14 05:04:36;;;;;;;15.50;5.70;;;;;;;6.00;98.53;103175.47;5034210;28;20443;-68
2023/02/14 05:07:02;;;;;;;14.97;5.43;;;;;;;5.99;98.88;103168.44;5034256;28;20443;-68
2023/02/14 05:09:29;;;;;;;16.07;6.50;;;;;;;6.06;98.69;103175.47;5034210;28;20449;-68
2023/02/14 05:11:55;;;;;;;20.17;6.87;;;;;;;6.12;98.46;103165.75;5033844;28;20967;-68
2023/02/14 05:14:22;;;;;;;17.37;6.40;;;;;;;6.15;98.40;103165.31;5034112;28;20534;-67
2023/02/14 05:16:50;;;;;;;16.57;6.50;;;;;;;6.19;98.01;103169.25;5033681;28;20995;-67
2023/02/14 05:19:17;;;;;;;19.93;6.40;;;;;;;6.12;98.44;103163.06;5034032;28;20443;-67
2023/02/14 05:21:43;;;;;;;19.87;7.17;;;;;;;6.10;98.44;103157.03;5033973;28;20442;-68
2023/02/14 05:24:10;;;;;;;21.93;8.40;;;;;;;6.03;99.06;103159.75;5033967;28;20451;-68
2023/02/14 05:26:36;;;;;;;15.57;5.83;;;;;;;6.06;98.64;103161.16;5033524;28;20908;-68
2023/02/14 05:29:03;;;;;;;16.17;6.67;;;;;;;6.14;98.30;103149.38;5033900;28;20589;-68
2023/02/14 05:31:30;;;;;;;23.40;9.60;;;;;;;6.12;97.88;103156.84;5033581;28;20956;-67
2023/02/14 05:33:57;;;;;;;23.10;9.20;;;;;;;6.16;97.93;103152.72;5033194;28;21043;-68
2023/02/14 05:36:24;;;;;;;17.27;8.43;;;;;;;6.09;97.50;103165.31;5033259;28;20498;-67
2023/02/14 05:38:51;;;;;;;24.97;8.50;;;;;;;6.09;96.94;103162.63;5033670;28;20443;-68
2023/02/14 05:41:17;;;;;;;29.17;8.73;;;;;;;6.10;96.16;103159.72;5033323;28;20478;-68
2023/02/14 05:43:44;;;;;;;17.57;7.93;;;;;;;6.12;96.00;103149.59;5033324;28;20485;-68
2023/02/14 05:46:10;;;;;;;17.03;6.37;;;;;;;6.11;95.78;103150.66;5033281;28;20467;-68
2023/02/14 05:48:37;;;;;;;20.33;7.30;;;;;;;6.11;95.45;103149.78;5032882;28;20959;-68
2023/02/14 05:51:06;;;;;;;23.37;7.83;;;;;;;6.10;95.63;103148.97;5032898;28;20936;-68
2023/02/14 05:53:33;;;;;;;21.13;7.70;;;;;;;6.03;96.16;103146.28;5032925;28;20526;-68
2023/02/14 05:56:00;;;;;;;19.43;5.70;;;;;;;6.04;95.64;103139.03;5032676;28;21015;-68
2023/02/14 05:58:26;;;;;;;24.23;8.70;;;;;;;6.07;94.64;103149.41;5033196;28;20498;-70
2023/02/14 06:00:53;;;;;;;18.10;6.33;;;;;;;6.01;94.54;103153.72;5032801;28;20443;-68
2023/02/14 06:03:20;;;;;;;19.00;7.90;;;;;;;5.98;94.16;103150.66;5033405;28;20545;-67
2023/02/14 06:05:46;;;;;;;24.67;8.83;;;;;;;5.95;94.38;103156.44;5033292;28;20893;-67
2023/02/14 06:08:14;;;;;;;24.63;8.30;;;;;;;5.99;94.40;103149.59;5033265;28;20526;-67
2023/02/14 06:10:41;;;;;;;20.73;7.67;;;;;;;6.03;94.45;103148.97;5033332;28;20439;-67
2023/02/14 06:13:09;;;;;;;19.73;7.60;;;;;;;6.03;95.12;103153.53;5033235;28;20471;-68
2023/02/14 06:15:36;;;;;;;21.77;7.67;;;;;;;6.05;95.25;103162.22;5033211;28;20579;-68
2023/02/14 06:18:03;;;;;;;19.80;7.10;;;;;;;6.09;95.59;103158.06;5033183;28;20532;-68
2023/02/14 06:20:30;;;;;;;21.13;7.93;;;;;;;6.12;95.97;103156.84;5032872;28;20941;-68
2023/02/14 06:22:57;;;;;;;27.70;8.80;;;;;;;6.06;96.46;103162.03;5032835;28;20875;-68
2023/02/14 06:25:25;;;;;;;19.73;7.43;;;;;;;6.07;96.80;103161.00;5032837;28;20482;-68
2023/02/14 06:27:56;;;;;;;15.33;5.80;;;;;;;6.03;97.21;103157.06;5033106;28;20445;-68
2023/02/14 06:30:23;;;;;;;22.20;7.83;;;;;;;5.95;97.96;103156.44;5033265;28;20428;-68
2023/02/14 06:32:50;;;;;;;24.03;8.80;;;;;;;5.99;98.39;103152.28;5032758;28;20447;-68
2023/02/14 06:35:16;;;;;;;18.63;6.40;;;;;;;6.02;98.38;103154.53;5032561;28;20465;-68
2023/02/14 06:37:44;;;;;;;25.87;8.93;;;;;;;6.01;98.63;103159.09;5032980;28;20445;-68
2023/02/14 06:40:12;;;;;;;19.60;7.83;;;;;;;6.04;98.12;103158.69;5032973;28;20448;-68
2023/02/14 06:42:40;;;;;;;17.77;6.53;;;;;;;6.11;98.35;103156.03;5033028;28;20440;-68
2023/02/14 06:45:07;;;;;;;21.50;8.20;;;;;;;6.18;98.09;103159.53;5032890;28;20459;-68
2023/02/14 06:47:34;;;;;;;25.43;7.20;;;;;;;6.18;98.07;103162.22;5036339;28;20988;-68
2023/02/14 06:50:00;;;;;;;22.57;7.67;;;;;;;6.23;97.84;103165.09;5036553;28;20447;-68
2023/02/14 06:52:27;;;;;;;28.03;7.80;;;;;;;6.23;97.45;103165.09;5036491;28;20932;-68
2023/02/14 06:54:53;;;;;;;16.60;7.13;;;;;;;6.23;97.33;103157.03;5036424;28;21001;-67
2023/02/14 06:57:20;;;;;;;19.83;6.90;;;;;;;6.26;97.16;103150.41;5036674;28;20491;-68
2023/02/14 06:59:48;;;;;;;17.40;7.17;;;;;;;6.27;95.67;103155.59;5036734;28;20889;-67
2023/02/14 07:02:15;;;;;;;26.53;7.80;;;;;;;6.23;95.04;103157.03;5036862;28;20529;-69
2023/02/14 07:04:41;;;;;;;20.43;7.93;;;;;;;6.22;95.43;103158.06;5036865;28;20642;-69
2023/02/14 07:07:08;;;;;;;23.20;7.10;;;;;;;6.25;96.01;103156.84;5036328;28;20928;-69
2023/02/14 07:09:34;;;;;;;27.00;8.30;;;;;;;6.21;96.38;103161.81;5036618;28;20450;-68
2023/02/14 07:12:01;;;;;;;22.67;9.30;;;;;;;6.17;96.31;103157.06;5036219;28;20449;-69
2023/02/14 07:14:27;;;;;;;21.97;8.50;;;;;;;6.16;95.74;103153.53;5036369;28;20443;-68
2023/02/14 07:16:55;;;;;;;24.50;8.77;;;;;;;6.14;95.59;103152.91;5036340;28;20487;-69
2023/02/14 07:19:22;;;;;;;24.67;8.90;;;;;;;6.21;95.72;103156.44;5036439;28;20439;-68
2023/02/14 07:21:48;;;;;;;25.77;8.47;;;;;;;6.23;96.21;103159.72;5036301;28;20443;-69
2023/02/14 07:24:15;;;;;;;25.43;9.67;;;;;;;6.20;96.12;103160.16;5036307;28;20446;-68
2023/02/14 07:26:41;;;;;;;25.10;8.40;;;;;;;6.28;96.38;103154.53;5036655;28;20483;-67
2023/02/14 07:29:08;;;;;;;21.47;8.90;;;;;;;6.37;96.17;103151.63;5036461;28;20474;-67
2023/02/14 07:31:35;;;;;;;21.38;8.70;;;;;;;6.53;94.38;103156.59;5035122;28;20537;-67
2023/02/14 07:34:03;;;;;;;28.77;7.77;;;;;;;6.49;94.17;103147.28;5036064;28;20290;-67
2023/02/14 07:36:29;;;;;;;24.13;8.67;;;;;;;6.50;94.33;103159.69;5035881;28;20487;-67
2023/02/14 07:38:56;;;;;;;19.53;8.03;;;;;;;6.54;94.89;103152.84;5035919;28;20451;-67
2023/02/14 07:41:23;;;;;;;19.43;8.60;;;;;;;6.61;94.65;103150.97;5035650;28;20450;-67
2023/02/14 07:43:49;;;;;;;25.00;8.47;;;;;;;6.67;94.51;103147.44;5035908;28;20446;-67
2023/02/14 07:46:17;;;;;;;23.17;8.47;;;;;;;6.67;94.67;103152.81;5035779;28;20518;-67
2023/02/14 07:48:43;;;;;;;18.27;8.47;;;;;;;6.70;94.86;103154.28;5035450;28;20451;-67
2023/02/14 07:51:11;;;;;;;19.90;7.83;;;;;;;6.76;94.62;103153.41;5035766;28;20530;-67
2023/02/14 07:53:38;;;;;;;22.67;7.90;;;;;;;6.79;94.31;103153.81;5035711;28;20446;-68
2023/02/14 07:56:05;;;;;;;24.80;8.17;;;;;;;6.82;94.25;103149.91;5035471;28;20490;-68
2023/02/14 07:58:31;;;;;;;24.43;8.67;;;;;;;6.85;94.38;103152.16;5034825;28;20833;-67
2023/02/14 08:00:58;;;;;;;20.80;7.70;;;;;;;6.95;94.20;103146.28;5035257;28;20443;-66
2023/02/14 08:03:24;;;;;;;21.60;6.80;;;;;;;6.97;94.76;103147.75;5035234;28;20822;-69
2023/02/14 08:05:55;;;;;;;27.93;8.07;;;;;;;7.04;94.44;103153.97;5035419;28;20499;-68
2023/02/14 08:08:25;;;;;;;25.60;8.70;;;;;;;7.08;94.17;103151.63;5035176;28;20948;-67
2023/02/14 08:10:51;;;;;;;26.00;8.40;;;;;;;7.15;94.07;103154.31;5035042;28;20891;-68
2023/02/14 08:13:18;;;;;;;20.13;9.00;;;;;;;7.22;93.67;103147.88;5035023;28;20530;-68
2023/02/14 08:18:29;;;;;;;23.50;9.10;;;;;;;7.36;92.05;103158.56;5035204;28;20904;-68
2023/02/14 08:20:56;;;;;;;19.63;8.60;;;;;;;7.38;91.64;103157.31;5035185;28;20475;-67
2023/02/14 08:23:24;;;;;;;21.47;8.53;;;;;;;7.44;90.08;103161.84;5035172;28;20439;-68
2023/02/14 08:25:52;;;;;;;21.40;9.57;;;;;;;7.48;88.46;103162.22;5034793;28;20482;-68
2023/02/14 08:28:20;;;;;;;23.97;9.67;;;;;;;7.51;87.27;103167.19;5035080;28;20478;-68
2023/02/14 08:30:46;;;;;;;17.90;7.03;;;;;;;7.55;86.56;103163.84;5035579;28;20526;-68
2023/02/14 08:33:13;;;;;;;25.43;9.77;;;;;;;7.60;87.13;103173.97;5034730;28;20439;-68
2023/02/14 08:35:39;;;;;;;18.23;8.67;;;;;;;7.64;87.39;103177.91;5034475;28;21026;-68
2023/02/14 08:38:07;;;;;;;17.30;7.77;;;;;;;7.69;87.71;103180.75;5034750;28;20577;-68
2023/02/14 08:40:35;;;;;;;21.23;8.27;;;;;;;7.70;88.05;103179.75;5034502;28;20466;-68
2023/02/14 08:43:02;;;;;;;19.40;8.17;;;;;;;7.76;87.80;103181.56;5034740;28;20447;-68
2023/02/14 08:45:29;;;;;;;21.20;8.43;;;;;;;7.83;86.80;103187.75;5034678;28;20467;-69
2023/02/14 08:48:01;;;;;;;24.10;8.47;;;;;;;7.84;85.37;103178.59;5034710;28;20534;-68
2023/02/14 08:50:27;;;;;;;20.30;8.30;;;;;;;7.88;85.06;103188.94;5034723;28;20428;-67
2023/02/14 08:52:54;;;;;;;19.17;9.30;;;;;;;7.96;85.31;103185.97;5034351;28;20445;-68
2023/02/14 08:55:20;;;;;;;21.97;8.10;;;;;;;8.02;84.98;103185.13;5034177;28;20474;-67
2023/02/14 08:57:49;;;;;;;24.07;8.03;;;;;;;8.05;84.31;103190.06;5034119;28;20478;-66
2023/02/14 09:00:16;;;;;;;19.60;8.23;;;;;;;8.05;83.87;103192.75;5034093;28;20446;-67
2023/02/14 09:02:42;;;;;;;20.67;7.90;;;;;;;8.05;84.04;103192.75;5034103;28;20443;-68
2023/02/14 09:05:09;;;;;;;27.67;10.43;;;;;;;8.06;83.57;103191.72;5033953;28;21000;-68
2023/02/14 09:07:36;;;;;;;18.70;8.67;;;;;;;8.10;83.08;103198.31;5034257;28;20493;-68
2023/02/14 09:10:02;;;;;;;16.83;6.93;;;;;;;8.14;83.42;103196.84;5032959;28;20451;-68
2023/02/14 09:12:29;;;;;;;24.07;9.80;;;;;;;8.18;83.44;103187.25;5034267;28;20449;-68
2023/02/14 09:14:57;;;;;;;18.40;8.03;;;;;;;8.22;83.18;103191.16;5033770;28;20495;-68
2023/02/14 09:17:24;;;;;;;19.17;7.90;;;;;;;8.15;79.73;103190.41;5034064;28;20485;-68
2023/02/14 09:19:50;;;;;;;17.27;7.73;;;;;;;8.10;79.51;103192.91;5033870;28;20482;-68
2023/02/14 09:22:18;;;;;;;19.33;8.60;;;;;;;8.11;80.40;103194.59;5033794;28;20450;-68
2023/02/14 09:24:45;;;;;;;23.50;8.93;;;;;;;8.12;81.31;103190.84;5033695;28;20858;-68
2023/02/14 09:27:12;;;;;;;21.40;8.30;;;;;;;8.14;81.63;103182.50;5034066;28;20430;-68
2023/02/14 09:29:38;;;;;;;20.43;9.07;;;;;;;8.23;81.45;103190.09;5033596;28;20474;-68
2023/02/14 09:32:06;;;;;;;20.00;8.53;;;;;;;8.31;81.53;103194.41;5033946;28;20534;-68
2023/02/14 09:34:34;;;;;;;23.03;7.93;;;;;;;8.35;81.56;103188.34;5033754;28;20439;-68
2023/02/14 09:37:01;;;;;;;25.47;8.60;;;;;;;8.31;79.06;103191.72;5033691;28;20493;-67
2023/02/14 09:39:27;;;;;;;23.90;9.80;;;;;;;8.19;78.33;103186.22;5033630;28;20443;-68
2023/02/14 09:42:07;;;;;;;19.83;7.87;;;;;;;8.19;78.70;103196.19;5033688;28;20439;-67
2023/02/14 09:44:38;;;;;;;17.30;7.03;;;;;;;8.19;78.50;103193.47;5033659;28;20507;-67
2023/02/14 09:47:17;;;;;;;22.60;6.40;;;;;;;8.19;79.66;103188.94;5033662;28;20451;-68
2023/02/14 09:49:45;;;;;;;17.07;6.27;;;;;;;8.26;80.15;103200.47;5033597;28;20439;-67
2023/02/14 09:52:14;;;;;;;18.83;7.50;;;;;;;8.32;79.87;103194.22;5033538;28;20883;-68
2023/02/14 09:54:43;;;;;;;23.73;8.60;;;;;;;8.42;80.35;103195.63;5033462;28;20463;-68
2023/02/14 09:57:15;;;;;;;21.63;9.30;;;;;;;8.49;80.26;103196.34;5033097;28;20479;-68
2023/02/14 09:59:47;;;;;;;18.67;7.43;;;;;;;8.42;80.95;103193.75;5033428;28;20489;-67
2023/02/14 10:02:38;;;;;;;18.80;8.57;;;;;;;8.49;80.81;103199.88;5033512;28;20426;-68
2023/02/14 10:05:13;;;;;;;22.23;7.47;;;;;;;8.55;80.17;103200.91;5033269;28;20481;-67
2023/02/14 10:07:51;;;;;;;25.53;8.70;;;;;;;8.59;78.94;103202.94;5033583;28;20485;-67
2023/02/14 10:10:25;;;;;;;20.07;8.97;;;;;;;8.60;78.33;103203.75;5033563;28;20446;-67
2023/02/14 10:12:56;;;;;;;23.70;9.00;;;;;;;8.44;77.11;103204.31;5033130;28;20467;-68
2023/02/14 10:15:26;;;;;;;23.07;8.83;;;;;;;8.44;77.11;103198.91;5033363;28;20466;-68
2023/02/14 10:17:58;;;;;;;22.57;8.60;;;;;;;8.35;76.38;103203.72;5032872;28;20493;-68
2023/02/14 10:20:29;;;;;;;19.03;8.93;;;;;;;8.29;77.09;103202.75;5032507;28;20523;-68
2023/02/14 10:23:03;;;;;;;19.23;8.23;;;;;;;8.26;77.48;103203.19;5033458;28;20435;-66
2023/02/14 10:25:38;;;;;;;18.33;8.00;;;;;;;8.20;78.28;103195.97;5032812;28;20568;-67
2023/02/14 10:28:08;;;;;;;17.30;7.17;;;;;;;8.21;78.37;103188.69;5033175;28;20433;-68
2023/02/14 10:30:38;;;;;;;19.00;7.60;;;;;;;8.27;77.87;103183.22;5033165;28;20470;-67
2023/02/14 10:33:13;;;;;;;21.97;9.07;;;;;;;8.35;77.22;103174.84;5033177;28;20443;-67
2023/02/14 10:35:46;;;;;;;21.40;8.10;;;;;;;8.47;77.16;103179.56;5033370;28;20576;-67
2023/02/14 10:38:30;;;;;;;23.67;8.80;;;;;;;8.50;76.71;103181.78;5032762;28;20972;-67
2023/02/14 10:41:20;;;;;;;23.00;7.97;;;;;;;8.43;76.82;103181.88;5032967;28;20431;-68
2023/02/14 10:43:59;;;;;;;19.73;7.30;;;;;;;8.45;76.91;103179.75;5032990;28;20412;-68
2023/02/14 10:46:34;;;;;;;21.17;8.50;;;;;;;8.48;77.23;103183.91;5032699;28;20473;-68
2023/02/14 10:49:15;;;;;;;19.00;7.47;;;;;;;8.53;77.47;103181.38;5033030;28;20459;-68
2023/02/14 10:51:46;;;;;;;17.50;8.47;;;;;;;8.57;76.45;103177.16;5033412;28;20426;-67
2023/02/14 10:54:20;;;;;;;17.20;6.87;;;;;;;8.55;75.94;103177.41;5032614;28;20423;-68
2023/02/14 10:56:53;;;;;;;30.93;10.00;;;;;;;8.66;77.18;103181.22;5032887;28;20518;-68
2023/02/14 10:59:26;;;;;;;24.00;8.50;;;;;;;8.69;76.77;103172.69;5032848;28;20438;-67
2023/02/14 11:01:55;;;;;;;22.87;8.80;;;;;;;8.73;76.07;103176.59;5032990;28;20795;-68
2023/02/14 11:04:24;;;;;;;22.07;9.73;;;;;;;8.78;76.33;103178.63;5032774;28;20497;-68
2023/02/14 11:06:51;;;;;;;21.50;8.60;;;;;;;8.80;76.72;103171.91;5032990;28;20457;-68
2023/02/14 11:09:19;;;;;;;23.93;9.40;;;;;;;8.88;77.02;103169.97;5032733;28;20451;-68
2023/02/14 11:11:50;;;;;;;23.43;8.00;;;;;;;8.93;76.61;103168.25;5032731;28;20449;-68
2023/02/14 11:14:27;;;;;;;16.47;8.13;;;;;;;8.97;76.71;103166.75;5033107;28;20430;-68
2023/02/14 11:16:55;;;;;;;25.13;9.40;;;;;;;9.00;75.65;103160.06;5032191;28;20471;-67
2023/02/14 11:19:26;;;;;;;24.60;8.53;;;;;;;9.04;75.88;103162.09;5032250;28;20936;-68
2023/02/14 11:21:54;;;;;;;27.53;9.10;;;;;;;9.04;76.37;103162.09;5032454;28;20432;-68
2023/02/14 11:24:27;;;;;;;19.57;9.60;;;;;;;9.07;76.17;103161.66;5032578;28;20479;-66
2023/02/14 11:26:57;;;;;;;22.30;8.40;;;;;;;9.16;76.71;103164.84;5032304;28;20478;-67
2023/02/14 11:29:31;;;;;;;15.53;7.40;;;;;;;9.19;76.68;103158.97;5032075;28;20481;-68
2023/02/14 11:32:07;;;;;;;19.37;7.60;;;;;;;9.19;75.88;103158.97;5031792;28;20453;-68
2023/02/14 11:34:38;;;;;;;31.47;8.30;;;;;;;9.13;75.97;103162.63;5035762;28;20818;-68
2023/02/14 11:37:23;;;;;;;21.07;9.37;;;;;;;9.11;74.84;103164.69;5035948;28;20481;-68
2023/02/14 11:39:53;;;;;;;23.37;9.23;;;;;;;9.02;74.32;103157.94;5036000;28;20435;-68
2023/02/14 11:42:34;;;;;;;18.47;7.67;;;;;;;8.86;73.76;103155.88;5035908;28;20439;-67
2023/02/14 11:45:01;;;;;;;19.07;8.43;;;;;;;8.83;76.55;103152.56;5035847;28;20474;-68
2023/02/14 11:47:30;;;;;;;21.10;8.07;;;;;;;8.80;74.05;103165.69;5035843;28;20449;-68
2023/02/14 11:50:00;;;;;;;22.03;9.17;;;;;;;8.76;74.63;103159.09;5035820;28;20849;-67
2023/02/14 11:52:28;;;;;;;19.33;7.70;;;;;;;8.81;75.09;103146.56;5035440;28;20944;-68